Time;durP1;ratioP1;P1;durP2;ratioP2;P2;SDS_P1;SDS_P2;PMS_P1;PMS_P2;Temp;Humidity;BMP_temperature;BMP_pressure;BME280_temperature;BME280_humidity;BME280_pressure;Samples;Min_cycle;Max_cycle;Signal;HPM_P1;HPM_P2
2024/02/27 00:00:50;;;;;;;;;;;;;;;1.47;100.00;101048.84;6183427;23;20345;-76
2024/02/27 00:03:15;;;;;;;;;;;;;;;1.44;100.00;101040.28;6184517;23;19944;-75
2024/02/27 00:05:41;;;;;;;;;;;;;;;1.40;100.00;101054.81;6183916;23;19966;-75
2024/02/27 00:08:06;;;;;;;;;;;;;;;1.34;100.00;101057.00;6184154;23;20249;-75
2024/02/27 00:10:32;;;;;;;;;;;;;;;1.42;100.00;101060.81;6183005;23;20299;-75
2024/02/27 00:12:57;;;;;;;;;;;;;;;1.36;100.00;101060.38;6182511;23;19974;-75
2024/02/27 00:15:22;;;;;;;;;;;;;;;1.39;100.00;101058.44;6183465;23;20234;-75
2024/02/27 00:17:48;;;;;;;;;;;;;;;1.39;100.00;101059.25;6183081;23;19946;-76
2024/02/27 00:20:13;;;;;;;;;;;;;;;1.41;100.00;101067.94;6182898;23;20062;-75
2024/02/27 00:22:38;;;;;;;;;;;;;;;1.37;100.00;101061.19;6182404;23;19912;-75
2024/02/27 00:25:03;;;;;;;;;;;;;;;1.34;100.00;101062.31;6184024;23;19916;-76
2024/02/27 00:27:29;;;;;;;;;;;;;;;1.32;100.00;101064.25;6183128;23;20333;-76
2024/02/27 00:29:54;;;;;;;;;;;;;;;1.31;100.00;101057.28;6183784;23;19970;-75
2024/02/27 00:32:19;;;;;;;;;;;;;;;1.30;100.00;101052.94;6184334;23;19916;-75
2024/02/27 00:34:45;;;;;;;;;;;;;;;1.35;100.00;101058.69;6183205;23;20018;-75
2024/02/27 00:37:10;;;;;;;;;;;;;;;1.31;100.00;101051.97;6182206;23;20344;-75
2024/02/27 00:39:35;;;;;;;;;;;;;;;1.30;100.00;101066.19;6184032;23;19913;-75
2024/02/27 00:42:02;;;;;;;;;;;;;;;1.28;100.00;101067.31;6182683;23;20441;-75
2024/02/27 00:44:27;;;;;;;;;;;;;;;1.27;100.00;101063.81;6182703;23;19948;-75
2024/02/27 00:46:52;;;;;;;;;;;;;;;1.26;100.00;101069.25;6183950;23;19987;-75
2024/02/27 00:49:18;;;;;;;;;;;;;;;1.24;100.00;101073.84;6183089;23;19919;-75
2024/02/27 00:51:43;;;;;;;;;;;;;;;1.25;100.00;101068.38;6182019;23;19940;-74
2024/02/27 00:54:09;;;;;;;;;;;;;;;1.23;100.00;101070.34;6184106;23;19944;-75
2024/02/27 00:56:34;;;;;;;;;;;;;;;1.18;100.00;101068.06;6183019;23;19920;-75
2024/02/27 00:59:02;;;;;;;;;;;;;;;1.16;100.00;101063.88;6181797;23;19979;-76
2024/02/27 01:01:27;;;;;;;;;;;;;;;1.14;100.00;101061.38;6183695;23;20344;-77
2024/02/27 01:03:53;;;;;;;;;;;;;;;1.14;100.00;101063.16;6183379;23;19924;-75
2024/02/27 01:06:18;;;;;;;;;;;;;;;1.14;100.00;101061.38;6182924;23;19923;-75
2024/02/27 01:08:43;;;;;;;;;;;;;;;1.13;100.00;101064.13;6184809;23;19920;-76
2024/02/27 01:11:08;;;;;;;;;;;;;;;1.12;100.00;101068.63;6184495;23;19939;-76
2024/02/27 01:13:34;;;;;;;;;;;;;;;1.08;100.00;101076.94;6183110;23;20016;-75
2024/02/27 01:15:59;;;;;;;;;;;;;;;1.04;100.00;101076.34;6187112;23;19912;-75
2024/02/27 01:18:24;;;;;;;;;;;;;;;1.01;100.00;101072.16;6191900;23;19912;-76
2024/02/27 01:20:49;;;;;;;;;;;;;;;0.96;100.00;101074.34;6192654;23;19909;-75
2024/02/27 01:23:14;;;;;;;;;;;;;;;0.95;100.00;101085.09;6186838;23;20023;-75
2024/02/27 01:25:40;;;;;;;;;;;;;;;0.97;100.00;101086.63;6185310;23;19912;-77
2024/02/27 01:28:06;;;;;;;;;;;;;;;0.89;100.00;101094.38;6184841;23;19963;-76
2024/02/27 01:30:31;;;;;;;;;;;;;;;0.84;100.00;101086.81;6186040;23;19912;-76
2024/02/27 01:32:56;;;;;;;;;;;;;;;0.81;100.00;101088.88;6184160;23;19912;-76
2024/02/27 01:35:21;;;;;;;;;;;;;;;0.82;100.00;101087.91;6183352;23;19923;-76
2024/02/27 01:37:47;;;;;;;;;;;;;;;0.79;100.00;101093.47;6185662;23;19912;-76
2024/02/27 01:40:12;;;;;;;;;;;;;;;0.77;100.00;101090.97;6184937;23;20054;-76
2024/02/27 01:42:38;;;;;;;;;;;;;;;0.73;100.00;101092.19;6184981;23;19913;-76
2024/02/27 01:45:08;;;;;;;;;;;;;;;0.72;100.00;101080.72;6185008;23;19924;-76
2024/02/27 01:47:33;;;;;;;;;;;;;;;0.74;100.00;101081.44;6159597;23;19917;-76
2024/02/27 01:49:58;;;;;;;;;;;;;;;0.78;100.00;101081.19;6184842;23;19918;-75
2024/02/27 01:52:23;;;;;;;;;;;;;;;0.78;100.00;101086.47;6158165;23;19948;-74
2024/02/27 01:54:49;;;;;;;;;;;;;;;0.74;100.00;101084.09;6185118;23;20502;-76
2024/02/27 01:57:14;;;;;;;;;;;;;;;0.79;100.00;101089.03;6158208;23;19916;-76
2024/02/27 01:59:41;;;;;;;;;;;;;;;0.77;100.00;101087.44;6184527;23;19999;-76
2024/02/27 02:02:09;;;;;;;;;;;;;;;0.77;100.00;101087.44;6184315;23;20245;-76
2024/02/27 02:04:34;;;;;;;;;;;;;;;0.77;100.00;101093.59;6157534;23;20340;-76
2024/02/27 02:07:00;;;;;;;;;;;;;;;0.80;100.00;101089.84;6184535;23;19916;-76
2024/02/27 02:09:25;;;;;;;;;;;;;;;0.81;100.00;101097.66;6185024;23;19919;-76
2024/02/27 02:11:57;;;;;;;;;;;;;;;0.81;100.00;101102.13;6158009;23;19912;-76
2024/02/27 02:14:23;;;;;;;;;;;;;;;0.78;100.00;101102.38;6184956;23;19920;-76
2024/02/27 02:16:49;;;;;;;;;;;;;;;0.75;100.00;101099.03;6184788;23;19920;-76
2024/02/27 02:19:14;;;;;;;;;;;;;;;0.71;100.00;101104.69;6184761;23;19958;-76
2024/02/27 02:21:39;;;;;;;;;;;;;;;0.73;100.00;101105.44;6184211;23;20215;-75
2024/02/27 02:24:05;;;;;;;;;;;;;;;0.73;100.00;101111.56;6185047;23;19919;-77
2024/02/27 02:26:30;;;;;;;;;;;;;;;0.77;100.00;101108.66;6158043;23;19916;-76
2024/02/27 02:28:56;;;;;;;;;;;;;;;0.78;100.00;101118.28;6183860;23;19923;-76
2024/02/27 02:31:21;;;;;;;;;;;;;;;0.75;100.00;101119.38;6184968;23;19920;-76
2024/02/27 02:33:46;;;;;;;;;;;;;;;0.70;100.00;101127.72;6183536;23;20321;-76
2024/02/27 02:36:11;;;;;;;;;;;;;;;0.66;100.00;101126.28;6183676;23;19916;-76
2024/02/27 02:38:37;;;;;;;;;;;;;;;0.64;100.00;101128.22;6185525;23;20388;-76
2024/02/27 02:41:02;;;;;;;;;;;;;;;0.59;100.00;101131.25;6184648;23;20369;-76
2024/02/27 02:43:27;;;;;;;;;;;;;;;0.53;100.00;101136.22;6183524;23;19916;-77
2024/02/27 02:45:52;;;;;;;;;;;;;;;0.48;100.00;101133.06;6185485;23;19959;-76
2024/02/27 02:48:17;;;;;;;;;;;;;;;0.40;100.00;101144.28;6184200;23;19912;-76
2024/02/27 02:50:43;;;;;;;;;;;;;;;0.34;100.00;101142.13;6183501;23;19975;-76
2024/02/27 02:53:08;;;;;;;;;;;;;;;0.28;100.00;101141.63;6158458;23;19908;-76
2024/02/27 02:55:33;;;;;;;;;;;;;;;0.26;100.00;101145.38;6184734;23;19912;-76
2024/02/27 02:57:59;;;;;;;;;;;;;;;0.26;100.00;101140.09;6183459;23;20250;-75
2024/02/27 03:00:24;;;;;;;;;;;;;;;0.23;100.00;101135.03;6185161;23;19936;-75
2024/02/27 03:02:49;;;;;;;;;;;;;;;0.22;100.00;101144.78;6185784;23;19917;-76
2024/02/27 03:05:15;;;;;;;;;;;;;;;0.21;100.00;101140.47;6184603;23;19916;-75
2024/02/27 03:07:40;;;;;;;;;;;;;;;0.26;100.00;101143.59;6186374;23;19919;-76
2024/02/27 03:10:06;;;;;;;;;;;;;;;0.29;100.00;101145.97;6186266;23;19916;-76
2024/02/27 03:12:31;;;;;;;;;;;;;;;0.28;100.00;101148.75;6185680;23;20241;-77
2024/02/27 03:14:56;;;;;;;;;;;;;;;0.23;100.00;101148.28;6187643;23;20344;-76
2024/02/27 03:17:21;;;;;;;;;;;;;;;0.27;100.00;101147.06;6194170;23;19987;-76
2024/02/27 03:19:47;;;;;;;;;;;;;;;0.21;100.00;101136.97;6202409;23;19912;-76
2024/02/27 03:22:13;;;;;;;;;;;;;;;0.12;100.00;101139.38;6187843;23;20354;-77
2024/02/27 03:24:38;;;;;;;;;;;;;;;0.13;100.00;101135.78;6192146;23;19923;-76
2024/02/27 03:27:04;;;;;;;;;;;;;;;0.13;100.00;101135.78;6184460;23;20328;-76
2024/02/27 03:29:29;;;;;;;;;;;;;;;0.09;100.00;101141.44;6185391;23;20329;-76
2024/02/27 03:31:54;;;;;;;;;;;;;;;0.08;100.00;101143.25;6186675;23;19936;-77
2024/02/27 03:34:20;;;;;;;;;;;;;;;0.07;100.00;101151.31;6156592;23;20237;-77
2024/02/27 03:36:45;;;;;;;;;;;;;;;-0.01;100.00;101143.97;6185265;23;19987;-76
2024/02/27 03:39:12;;;;;;;;;;;;;;;0.00;100.00;101150.94;6186819;23;19952;-76
2024/02/27 03:41:38;;;;;;;;;;;;;;;-0.05;100.00;101145.16;6187618;23;19999;-77
2024/02/27 03:44:03;;;;;;;;;;;;;;;-0.07;100.00;101142.63;6187156;23;19916;-76
2024/02/27 03:46:34;;;;;;;;;;;;;;;-0.03;100.00;101143.25;6185111;23;19912;-76
2024/02/27 03:48:59;;;;;;;;;;;;;;;-0.06;100.00;101135.53;6183847;23;19935;-76
2024/02/27 03:51:25;;;;;;;;;;;;;;;-0.09;100.00;101141.06;6183586;23;20302;-77
2024/02/27 03:53:50;;;;;;;;;;;;;;;-0.08;100.00;101138.28;6183823;23;19912;-77
2024/02/27 03:56:15;;;;;;;;;;;;;;;-0.08;100.00;101142.75;6183274;23;20328;-77
2024/02/27 03:58:40;;;;;;;;;;;;;;;-0.08;100.00;101148.06;6183047;23;20333;-76
2024/02/27 04:01:06;;;;;;;;;;;;;;;-0.12;100.00;101143.97;6183784;23;20494;-76
2024/02/27 04:03:31;;;;;;;;;;;;;;;-0.12;100.00;101146.59;6183584;23;20374;-77
2024/02/27 04:08:37;;;;;;;;;;;;;;;-0.19;100.00;101144.44;6154451;23;20409;-76
2024/02/27 04:11:17;;;;;;;;;;;;;;;-0.21;100.00;101146.38;6154348;23;19920;-76
2024/02/27 04:13:43;;;;;;;;;;;;;;;-0.24;100.00;101148.38;6127683;23;19913;-76
2024/02/27 04:16:24;;;;;;;;;;;;;;;-0.28;100.00;101152.25;6163932;23;19943;-76
2024/02/27 04:18:58;;;;;;;;;;;;;;;-0.29;100.00;101154.03;6182612;23;19912;-75
2024/02/27 04:21:23;;;;;;;;;;;;;;;-0.26;100.00;101155.59;6182473;23;19931;-76
2024/02/27 04:23:57;;;;;;;;;;;;;;;-0.32;100.00;101152.50;6182082;23;20252;-76
2024/02/27 04:26:22;;;;;;;;;;;;;;;-0.30;100.00;101157.66;6183722;23;19923;-75
2024/02/27 04:28:47;;;;;;;;;;;;;;;-0.30;100.00;101152.34;6183178;23;19916;-76
2024/02/27 04:31:13;;;;;;;;;;;;;;;-0.28;100.00;101152.25;6187950;23;19908;-76
2024/02/27 04:33:39;;;;;;;;;;;;;;;-0.29;100.00;101158.50;6185304;23;19916;-76
2024/02/27 04:36:06;;;;;;;;;;;;;;;-0.33;100.00;101156.09;6183265;23;19990;-77
2024/02/27 04:38:32;;;;;;;;;;;;;;;-0.37;100.00;101151.16;6175780;23;19947;-76
2024/02/27 04:40:58;;;;;;;;;;;;;;;-0.42;100.00;101166.53;6155097;23;20318;-76
2024/02/27 04:43:23;;;;;;;;;;;;;;;-0.40;100.00;101159.34;6153571;23;20344;-76
2024/02/27 04:45:58;;;;;;;;;;;;;;;-0.38;100.00;101165.34;6154775;23;19912;-76
2024/02/27 04:48:37;;;;;;;;;;;;;;;-0.46;100.00;101166.75;6154271;23;19913;-76
2024/02/27 04:51:03;;;;;;;;;;;;;;;-0.41;100.00;101173.50;6154750;23;19912;-76
2024/02/27 04:53:31;;;;;;;;;;;;;;;-0.44;100.00;101168.44;6129763;23;20270;-74
2024/02/27 04:55:56;;;;;;;;;;;;;;;-0.46;100.00;101169.41;6155397;23;19920;-75
2024/02/27 04:58:22;;;;;;;;;;;;;;;-0.42;100.00;101183.22;6154372;23;20380;-74
2024/02/27 05:00:47;;;;;;;;;;;;;;;-0.49;100.00;101177.56;6156113;23;19912;-75
2024/02/27 05:03:12;;;;;;;;;;;;;;;-0.53;100.00;101185.88;6155035;23;19924;-77
2024/02/27 05:05:37;;;;;;;;;;;;;;;-0.54;100.00;101185.03;6155125;23;19952;-77
2024/02/27 05:08:05;;;;;;;;;;;;;;;-0.49;100.00;101192.63;6156345;23;19947;-76
2024/02/27 05:10:31;;;;;;;;;;;;;;;-0.44;100.00;101194.91;6155221;23;19927;-77
2024/02/27 05:12:57;;;;;;;;;;;;;;;-0.38;100.00;101189.97;6128285;23;19995;-77
2024/02/27 05:15:22;;;;;;;;;;;;;;;-0.27;100.00;101201.56;6156553;23;19959;-78
2024/02/27 05:17:47;;;;;;;;;;;;;;;-0.24;100.00;101196.88;6154662;23;19919;-78
2024/02/27 05:20:12;;;;;;;;;;;;;;;-0.24;100.00;101206.59;6154328;23;19987;-78
2024/02/27 05:22:38;;;;;;;;;;;;;;;-0.24;100.00;101211.88;6157210;23;19947;-78
2024/02/27 05:25:03;;;;;;;;;;;;;;;-0.22;100.00;101216.13;6155428;23;19941;-79
2024/02/27 05:27:28;;;;;;;;;;;;;;;-0.22;100.00;101218.78;6155980;23;19916;-78
2024/02/27 05:29:55;;;;;;;;;;;;;;;-0.22;100.00;101225.84;6157329;23;19920;-78
2024/02/27 05:32:20;;;;;;;;;;;;;;;-0.16;100.00;101218.28;6154555;23;19991;-78
2024/02/27 05:34:45;;;;;;;;;;;;;;;-0.16;100.00;101220.09;6155541;23;19923;-78
2024/02/27 05:37:11;;;;;;;;;;;;;;;-0.17;100.00;101219.25;6156697;23;20274;-77
2024/02/27 05:39:36;;;;;;;;;;;;;;;-0.16;100.00;101226.22;6154379;23;20219;-78
2024/02/27 05:42:01;;;;;;;;;;;;;;;-0.15;100.00;101232.38;6155997;23;20353;-78
2024/02/27 05:44:26;;;;;;;;;;;;;;;-0.12;100.00;101237.44;6157218;23;19908;-78
2024/02/27 05:46:52;;;;;;;;;;;;;;;-0.12;100.00;101234.78;6156000;23;19913;-78
2024/02/27 05:49:18;;;;;;;;;;;;;;;-0.10;100.00;101230.22;6156739;23;20372;-77
2024/02/27 05:51:43;;;;;;;;;;;;;;;-0.08;100.00;101230.91;6156441;23;20299;-77
2024/02/27 05:54:08;;;;;;;;;;;;;;;-0.12;100.00;101236.56;6154585;23;19969;-77
2024/02/27 05:56:34;;;;;;;;;;;;;;;-0.11;100.00;101240.91;6155877;23;19912;-78
2024/02/27 05:58:59;;;;;;;;;;;;;;;-0.14;100.00;101243.78;6156467;23;20290;-77
2024/02/27 06:01:24;;;;;;;;;;;;;;;-0.12;100.00;101252.44;6154734;23;19920;-77
2024/02/27 06:03:49;;;;;;;;;;;;;;;-0.17;100.00;101260.75;6155341;23;19912;-77
2024/02/27 06:06:17;;;;;;;;;;;;;;;-0.19;100.00;101255.59;6156747;23;19944;-77
2024/02/27 06:08:45;;;;;;;;;;;;;;;-0.14;100.00;101265.81;6156120;23;19917;-77
2024/02/27 06:11:10;;;;;;;;;;;;;;;-0.16;100.00;101271.19;6156083;23;19912;-78
2024/02/27 06:13:35;;;;;;;;;;;;;;;-0.14;100.00;101275.53;6156146;23;20058;-77
2024/02/27 06:16:04;;;;;;;;;;;;;;;-0.12;100.00;101279.78;6155261;23;19921;-77
2024/02/27 06:18:29;;;;;;;;;;;;;;;-0.11;100.00;101275.31;6155594;23;19923;-77
2024/02/27 06:23:38;;;;;;;;;;;;;;;-0.08;100.00;101290.97;6155848;23;19927;-77
2024/02/27 06:26:07;;;;;;;;;;;;;;;-0.05;100.00;101290.72;6155981;23;19936;-77
2024/02/27 06:28:33;;;;;;;;;;;;;;;-0.07;100.00;101292.66;6156924;23;20364;-77
2024/02/27 06:30:58;;;;;;;;;;;;;;;-0.06;100.00;101304.94;6161335;23;19913;-76
2024/02/27 06:33:26;;;;;;;;;;;;;;;-0.02;100.00;101306.38;6168777;23;19920;-77
2024/02/27 06:35:51;;;;;;;;;;;;;;;-0.03;100.00;101300.22;6163938;23;19939;-77
2024/02/27 06:38:19;;;;;;;;;;;;;;;-0.03;100.00;101307.34;6160913;23;19920;-77
2024/02/27 06:40:47;;;;;;;;;;;;;;;-0.03;100.00;101310.00;6157157;23;19912;-77
2024/02/27 06:43:13;;;;;;;;;;;;;;;-0.03;100.00;101308.19;6156128;23;19919;-78
2024/02/27 06:45:39;;;;;;;;;;;;;;;0.04;100.00;101326.25;6157311;23;20282;-77
2024/02/27 06:48:04;;;;;;;;;;;;;;;0.01;100.00;101329.13;6155703;23;19944;-78
2024/02/27 06:50:31;;;;;;;;;;;;;;;-0.02;100.00;101327.56;6155059;23;19912;-81
2024/02/27 06:52:56;;;;;;;;;;;;;;;0.04;100.00;101336.84;6156588;23;19917;-78
2024/02/27 06:55:21;;;;;;;;;;;;;;;0.06;100.00;101340.22;6160069;23;20336;-78
2024/02/27 06:57:46;;;;;;;;;;;;;;;0.04;100.00;101337.66;6169080;23;20459;-78
2024/02/27 07:00:14;;;;;;;;;;;;;;;0.04;100.00;101342.97;6166895;23;20395;-77
2024/02/27 07:02:40;;;;;;;;;;;;;;;0.04;100.00;101340.31;6159362;23;20377;-76
2024/02/27 07:05:05;;;;;;;;;;;;;;;0.07;100.00;101337.44;6155456;23;19952;-77
2024/02/27 07:07:33;;;;;;;;;;;;;;;0.09;100.00;101342.63;6156288;23;19913;-77
2024/02/27 07:09:58;;;;;;;;;;;;;;;0.06;100.00;101342.88;6155461;23;19912;-77
2024/02/27 07:12:24;;;;;;;;;;;;;;;0.09;100.00;101345.28;6154296;23;20315;-77
2024/02/27 07:14:53;;;;;;;;;;;;;;;0.15;100.00;101350.09;6156281;23;19948;-76
2024/02/27 07:17:20;;;;;;;;;;;;;;;0.10;100.00;101355.75;6155664;23;19944;-77
2024/02/27 07:19:45;;;;;;;;;;;;;;;0.18;100.00;101352.50;6156623;23;19916;-76
2024/02/27 07:22:11;;;;;;;;;;;;;;;0.13;100.00;101352.00;6161343;23;19917;-77
2024/02/27 07:24:36;;;;;;;;;;;;;;;0.18;100.00;101349.03;6168855;23;20278;-78
2024/02/27 07:27:04;;;;;;;;;;;;;;;0.17;100.00;101355.28;6161907;23;19931;-77
2024/02/27 07:29:29;;;;;;;;;;;;;;;0.20;100.00;101347.94;6161572;23;20322;-78
2024/02/27 07:31:54;;;;;;;;;;;;;;;0.27;100.00;101343.84;6157006;23;19955;-77
2024/02/27 07:34:21;;;;;;;;;;;;;;;0.29;100.00;101347.22;6155596;23;19913;-76
2024/02/27 07:36:46;;;;;;;;;;;;;;;0.23;100.00;101346.84;6156858;23;19923;-77
2024/02/27 07:39:12;;;;;;;;;;;;;;;0.22;100.00;101339.88;6154730;23;19920;-78
2024/02/27 07:41:38;;;;;;;;;;;;;;;0.20;100.00;101358.53;6156853;23;19940;-78
2024/02/27 07:44:03;;;;;;;;;;;;;;;0.25;100.00;101360.84;6159574;23;19913;-77
2024/02/27 07:46:28;;;;;;;;;;;;;;;0.27;100.00;101364.22;6157446;23;20344;-77
2024/02/27 07:48:54;;;;;;;;;;;;;;;0.33;100.00;101366.41;6166002;23;19944;-77
2024/02/27 07:51:25;;;;;;;;;;;;;;;0.33;100.00;101360.25;6172625;23;19956;-77
2024/02/27 07:53:57;;;;;;;;;;;;;;;0.42;100.00;101365.69;6156902;23;19916;-76
2024/02/27 07:56:22;;;;;;;;;;;;;;;0.37;100.00;101361.69;6156267;23;20442;-77
2024/02/27 07:58:47;;;;;;;;;;;;;;;0.37;100.00;101365.19;6143168;23;19940;-76
2024/02/27 08:01:13;;;;;;;;;;;;;;;0.38;100.00;101364.22;6156398;23;19951;-77
2024/02/27 08:03:38;;;;;;;;;;;;;;;0.34;100.00;101368.09;6155974;23;19917;-76
2024/02/27 08:06:05;;;;;;;;;;;;;;;0.40;100.00;101370.25;6155423;23;20234;-77
2024/02/27 08:08:30;;;;;;;;;;;;;;;0.37;100.00;101374.94;6127463;23;19992;-77
2024/02/27 08:10:55;;;;;;;;;;;;;;;0.35;100.00;101368.91;6154059;23;19998;-77
2024/02/27 08:13:21;;;;;;;;;;;;;;;0.31;100.00;101370.97;6154652;23;19939;-77
2024/02/27 08:15:46;;;;;;;;;;;;;;;0.27;100.00;101372.97;6153202;23;19912;-77
2024/02/27 08:18:11;;;;;;;;;;;;;;;0.29;100.00;101379.00;6154162;23;19988;-76
2024/02/27 08:20:37;;;;;;;;;;;;;;;0.26;100.00;101381.91;6155365;23;19964;-77
2024/02/27 08:23:02;;;;;;;;;;;;;;;0.34;100.00;101386.63;6153824;23;19946;-77
2024/02/27 08:25:28;;;;;;;;;;;;;;;0.40;100.00;101388.78;6154337;23;19908;-77
2024/02/27 08:27:53;;;;;;;;;;;;;;;0.36;100.00;101405.88;6154585;23;19917;-75
2024/02/27 08:30:19;;;;;;;;;;;;;;;0.43;100.00;101380.63;6154809;23;19913;-76
2024/02/27 08:32:44;;;;;;;;;;;;;;;0.40;100.00;101395.91;6154416;23;19912;-77
2024/02/27 08:35:09;;;;;;;;;;;;;;;0.47;100.00;101390.97;6153434;23;19916;-76
2024/02/27 08:37:35;;;;;;;;;;;;;;;0.49;100.00;101394.34;6155155;23;19913;-77
2024/02/27 08:40:00;;;;;;;;;;;;;;;0.49;100.00;101400.47;6153793;23;19916;-77
2024/02/27 08:42:26;;;;;;;;;;;;;;;0.44;100.00;101408.78;6154037;23;20020;-77
2024/02/27 08:44:51;;;;;;;;;;;;;;;0.51;100.00;101405.69;6154550;23;19917;-77
2024/02/27 08:47:16;;;;;;;;;;;;;;;0.49;100.00;101400.47;6126777;23;19921;-76
2024/02/27 08:49:41;;;;;;;;;;;;;;;0.53;100.00;101414.38;6152939;23;19919;-77
2024/02/27 08:52:07;;;;;;;;;;;;;;;0.54;100.00;101424.84;6154699;23;19917;-76
2024/02/27 08:54:32;;;;;;;;;;;;;;;0.55;100.00;101418.56;6153365;23;19951;-76
2024/02/27 08:56:57;;;;;;;;;;;;;;;0.61;100.00;101427.84;6153681;23;19916;-76
2024/02/27 08:59:23;;;;;;;;;;;;;;;0.63;100.00;101428.59;6154753;23;19913;-77
2024/02/27 09:01:48;;;;;;;;;;;;;;;0.72;100.00;101429.69;6153981;23;19916;-76
2024/02/27 09:04:14;;;;;;;;;;;;;;;0.73;100.00;101440.16;6153465;23;19913;-77
2024/02/27 09:06:40;;;;;;;;;;;;;;;0.80;100.00;101440.53;6155322;23;20015;-77
2024/02/27 09:09:06;;;;;;;;;;;;;;;0.81;100.00;101441.38;6154772;23;19920;-77
2024/02/27 09:11:31;;;;;;;;;;;;;;;0.84;100.00;101436.69;6153553;23;20360;-77
2024/02/27 09:13:56;;;;;;;;;;;;;;;0.87;100.00;101440.91;6155471;23;19909;-77
2024/02/27 09:16:30;;;;;;;;;;;;;;;0.91;100.00;101434.38;6153746;23;20321;-78
2024/02/27 09:18:56;;;;;;;;;;;;;;;0.91;100.00;101442.34;6153871;23;19940;-78
2024/02/27 09:21:21;;;;;;;;;;;;;;;0.97;100.00;101441.03;6155252;23;20381;-77
2024/02/27 09:23:51;;;;;;;;;;;;;;;0.99;100.00;101431.13;6154781;23;20255;-78
2024/02/27 09:26:16;;;;;;;;;;;;;;;1.02;100.00;101433.56;6153428;23;19912;-78
2024/02/27 09:28:41;;;;;;;;;;;;;;;1.08;100.00;101438.38;6154585;23;19913;-76
2024/02/27 09:31:07;;;;;;;;;;;;;;;1.03;100.00;101444.06;6153755;23;19917;-77
2024/02/27 09:33:32;;;;;;;;;;;;;;;1.01;100.00;101439.81;6154102;23;19913;-78
2024/02/27 09:35:57;;;;;;;;;;;;;;;1.17;100.00;101442.97;6156770;23;19920;-77
2024/02/27 09:38:23;;;;;;;;;;;;;;;1.15;100.00;101452.00;6129062;23;19916;-77
2024/02/27 09:40:50;;;;;;;;;;;;;;;1.20;100.00;101447.19;6156902;23;19947;-77
2024/02/27 09:43:22;;;;;;;;;;;;;;;1.23;100.00;101452.25;6132551;23;19912;-77
2024/02/27 09:45:48;;;;;;;;;;;;;;;1.28;100.00;101443.94;6158275;23;20316;-77
2024/02/27 09:48:15;;;;;;;;;;;;;;;1.30;100.00;101448.16;6139771;23;19936;-76
2024/02/27 09:50:40;;;;;;;;;;;;;;;1.34;100.00;101446.09;6142051;23;20377;-76
2024/02/27 09:53:05;;;;;;;;;;;;;;;1.25;100.00;101445.00;6167041;23;19971;-77
2024/02/27 09:55:31;;;;;;;;;;;;;;;1.34;100.00;101444.28;6140240;23;19965;-76
2024/02/27 09:57:58;;;;;;;;;;;;;;;1.32;100.00;101446.22;6158434;23;19920;-78
2024/02/27 10:00:23;;;;;;;;;;;;;;;1.36;100.00;101442.38;6156274;23;19917;-77
2024/02/27 10:02:51;;;;;;;;;;;;;;;1.42;100.00;101456.09;6156798;23;19940;-77
2024/02/27 10:05:18;;;;;;;;;;;;;;;1.46;100.00;101454.88;6157603;23;19909;-77
2024/02/27 10:07:48;;;;;;;;;;;;;;;1.38;100.00;101467.94;6156264;23;19912;-77
2024/02/27 10:10:13;;;;;;;;;;;;;;;1.50;100.00;101472.25;6156863;23;19913;-76
2024/02/27 10:12:38;;;;;;;;;;;;;;;1.62;100.00;101465.13;6163153;23;19915;-76
2024/02/27 10:15:04;;;;;;;;;;;;;;;1.69;100.00;101473.44;6167605;23;19913;-77
2024/02/27 10:17:31;;;;;;;;;;;;;;;1.59;100.00;101462.72;6174088;23;20255;-76
2024/02/27 10:19:56;;;;;;;;;;;;;;;1.60;100.00;101464.41;6175758;23;19912;-77
2024/02/27 10:22:21;;;;;;;;;;;;;;;1.65;100.00;101483.47;6156453;23;19916;-77
2024/02/27 10:24:48;;;;;;;;;;;;;;;1.65;100.00;101478.97;6156647;23;19919;-76
2024/02/27 10:27:13;;;;;;;;;;;;;;;1.60;100.00;101472.38;6157795;23;20339;-76
2024/02/27 10:29:38;;;;;;;;;;;;;;;1.58;100.00;101472.50;6157292;23;19916;-77
2024/02/27 10:32:04;;;;;;;;;;;;;;;1.63;100.00;101472.94;6157518;23;19944;-76
2024/02/27 10:34:30;;;;;;;;;;;;;;;1.61;100.00;101472.22;6130514;23;19923;-77
2024/02/27 10:37:02;;;;;;;;;;;;;;;1.66;100.00;101475.38;6166979;23;20378;-77
2024/02/27 10:39:28;;;;;;;;;;;;;;;1.74;100.00;101477.41;6169046;23;19916;-76
2024/02/27 10:41:53;;;;;;;;;;;;;;;1.81;100.00;101477.75;6174884;23;19932;-76
2024/02/27 10:44:18;;;;;;;;;;;;;;;1.75;100.00;101478.25;6164037;23;20290;-76
2024/02/27 10:46:43;;;;;;;;;;;;;;;1.75;100.00;101470.28;6131060;23;19928;-77
2024/02/27 10:49:14;;;;;;;;;;;;;;;1.81;100.00;101462.69;6157264;23;19943;-75
2024/02/27 10:51:40;;;;;;;;;;;;;;;1.80;100.00;101461.00;6133835;23;19928;-77
2024/02/27 10:54:05;;;;;;;;;;;;;;;1.83;100.00;101449.25;6161430;23;19923;-77
2024/02/27 10:56:33;;;;;;;;;;;;;;;1.80;100.00;101462.78;6162970;23;19951;-78
2024/02/27 10:58:59;;;;;;;;;;;;;;;1.86;100.00;101459.66;6177763;23;19924;-78
2024/02/27 11:01:36;;;;;;;;;;;;;;;1.81;100.00;101457.38;6201494;23;20258;-77
2024/02/27 11:04:03;;;;;;;;;;;;;;;2.04;100.00;101462.59;6179207;23;19951;-78
2024/02/27 11:06:28;;;;;;;;;;;;;;;2.13;100.00;101461.00;6192939;23;19935;-78
2024/02/27 11:09:12;;;;;;;;;;;;;;;2.36;100.00;101474.19;6162927;23;19912;-78
2024/02/27 11:11:41;;;;;;;;;;;;;;;2.33;100.00;101466.47;6190029;23;19991;-78
2024/02/27 11:14:06;;;;;;;;;;;;;;;2.48;100.00;101475.81;6188976;23;19924;-78
2024/02/27 11:16:32;;;;;;;;;;;;;;;2.57;100.00;101476.88;6187468;23;19913;-78
2024/02/27 11:19:12;;;;;;;;;;;;;;;2.45;100.00;101464.59;6187685;23;19919;-78
2024/02/27 11:21:38;;;;;;;;;;;;;;;2.35;100.00;101467.19;6187419;23;19913;-76
2024/02/27 11:24:03;;;;;;;;;;;;;;;2.34;100.00;101473.47;6159163;23;19959;-75
2024/02/27 11:26:29;;;;;;;;;;;;;;;2.31;100.00;101474.59;6161281;23;19912;-78
2024/02/27 11:28:56;;;;;;;;;;;;;;;2.17;100.00;101465.09;6186978;23;19985;-76
2024/02/27 11:31:22;;;;;;;;;;;;;;;2.41;100.00;101469.34;6185788;23;19912;-78
2024/02/27 11:33:53;;;;;;;;;;;;;;;2.46;100.00;101467.16;6186640;23;20245;-78
2024/02/27 11:36:18;;;;;;;;;;;;;;;2.67;100.00;101475.13;6185502;23;19916;-78
2024/02/27 11:38:44;;;;;;;;;;;;;;;2.79;100.00;101475.06;6185188;23;19955;-78
2024/02/27 11:41:14;;;;;;;;;;;;;;;2.92;100.00;101467.72;6187222;23;19923;-76
2024/02/27 11:43:40;;;;;;;;;;;;;;;2.94;100.00;101481.72;6160774;23;19967;-76
2024/02/27 11:46:39;;;;;;;;;;;;;;;3.01;100.00;101479.38;6185461;23;19912;-78
2024/02/27 11:49:09;;;;;;;;;;;;;;;2.85;100.00;101488.66;6121656;23;19919;-76
2024/02/27 11:51:35;;;;;;;;;;;;;;;2.79;100.00;101483.88;6185664;23;20036;-77
2024/02/27 11:54:07;;;;;;;;;;;;;;;2.73;100.00;101474.63;6185017;23;20118;-77
2024/02/27 11:56:39;;;;;;;;;;;;;;;2.85;100.00;101472.72;6185700;23;19947;-78
2024/02/27 11:59:04;;;;;;;;;;;;;;;2.87;100.00;101465.44;6184999;23;19972;-78
2024/02/27 12:01:30;;;;;;;;;;;;;;;3.05;100.00;101464.84;6185879;23;19920;-78
2024/02/27 12:03:55;;;;;;;;;;;;;;;3.05;100.00;101461.34;6186956;23;19912;-78
2024/02/27 12:06:20;;;;;;;;;;;;;;;2.97;100.00;101454.03;6184418;23;19927;-77
2024/02/27 12:08:49;;;;;;;;;;;;;;;2.94;100.00;101454.28;6185761;23;19912;-77
2024/02/27 12:11:14;;;;;;;;;;;;;;;2.93;100.00;101453.44;6186397;23;20337;-77
2024/02/27 12:13:44;;;;;;;;;;;;;;;2.96;100.00;101452.34;6185155;23;19913;-78
2024/02/27 12:16:09;;;;;;;;;;;;;;;2.90;100.00;101443.09;6160546;23;19920;-78
2024/02/27 12:18:35;;;;;;;;;;;;;;;3.00;100.00;101437.81;6159548;23;19912;-78
2024/02/27 12:21:01;;;;;;;;;;;;;;;3.01;100.00;101431.50;6184699;23;19943;-78
2024/02/27 12:23:30;;;;;;;;;;;;;;;3.16;100.00;101435.50;6184763;23;20233;-78
2024/02/27 12:25:55;;;;;;;;;;;;;;;3.27;100.00;101431.88;6185258;23;19913;-78
2024/02/27 12:28:22;;;;;;;;;;;;;;;3.28;100.00;101422.09;6158418;23;20270;-78
2024/02/27 12:30:48;;;;;;;;;;;;;;;3.29;100.00;101421.13;6185697;23;20310;-78
2024/02/27 12:33:13;;;;;;;;;;;;;;;3.41;100.00;101422.69;6185539;23;20088;-77